createdAt,value
2022-11-15T00:00:56.467Z,94.5
2022-11-15T00:02:12.770Z,94.4
2022-11-15T00:03:29.054Z,94.4
2022-11-15T00:04:45.353Z,94.4
2022-11-15T00:06:00.654Z,94.6
2022-11-15T00:07:16.954Z,95.1
2022-11-15T00:08:33.256Z,95.2
2022-11-15T00:09:49.539Z,95.5
2022-11-15T00:11:05.842Z,95.7
2022-11-15T00:12:22.136Z,95.6
2022-11-15T00:13:38.419Z,95.7
2022-11-15T00:14:54.715Z,95.8
2022-11-15T00:16:11.007Z,96.1
2022-11-15T00:17:27.304Z,96.1
2022-11-15T00:18:43.582Z,95.9
2022-11-15T00:19:59.895Z,95.6
2022-11-15T00:21:16.184Z,95.4
2022-11-15T00:22:31.481Z,95.3
2022-11-15T00:23:47.783Z,95.3
2022-11-15T00:25:04.070Z,95.3
2022-11-15T00:26:20.370Z,95.3
2022-11-15T00:27:36.663Z,95
2022-11-15T00:28:52.954Z,95
2022-11-15T00:30:08.273Z,94.9
2022-11-15T00:31:24.571Z,94.8
2022-11-15T00:32:40.852Z,94.8
2022-11-15T00:33:57.147Z,94.9
2022-11-15T00:35:13.446Z,95.1
2022-11-15T00:36:29.734Z,95.4
2022-11-15T00:37:46.024Z,96
2022-11-15T00:39:02.331Z,96.3
2022-11-15T00:40:18.604Z,96.3
2022-11-15T00:41:34.914Z,96.1
2022-11-15T00:42:51.191Z,95.8
2022-11-15T00:44:07.503Z,95.6
2022-11-15T00:45:23.782Z,95.8
2022-11-15T00:46:39.089Z,95.8
2022-11-15T00:47:55.377Z,96.1
2022-11-15T00:49:11.674Z,96.1
2022-11-15T00:50:27.985Z,96.3
2022-11-15T00:51:44.000Z,96.5
2022-11-15T00:53:00.559Z,96.7
2022-11-15T00:54:16.855Z,97.1
2022-11-15T00:55:33.143Z,97.3
2022-11-15T00:56:49.436Z,97.4
2022-11-15T00:58:05.737Z,97.5
2022-11-15T00:59:22.032Z,97.4
2022-11-15T01:00:38.329Z,98
2022-11-15T01:01:54.619Z,98.3
2022-11-15T01:03:09.924Z,98.3
2022-11-15T01:04:26.218Z,98.4
2022-11-15T01:05:42.507Z,98.3
2022-11-15T01:06:58.799Z,98.2
2022-11-15T01:08:15.098Z,98.5
2022-11-15T01:09:31.398Z,99
2022-11-15T01:10:47.680Z,99.2
2022-11-15T01:12:03.984Z,99.7
2022-11-15T01:13:20.265Z,100
2022-11-15T01:14:36.551Z,100
2022-11-15T01:15:52.849Z,100
2022-11-15T01:17:09.139Z,100
2022-11-15T01:18:25.430Z,99.9
2022-11-15T01:19:40.749Z,99.5
2022-11-15T01:20:57.043Z,98.7
2022-11-15T01:22:13.324Z,98
2022-11-15T01:23:29.635Z,97.2
2022-11-15T01:24:45.927Z,96.7
2022-11-15T01:26:02.000Z,96.3
2022-11-15T01:27:18.503Z,95.8
2022-11-15T01:28:34.790Z,95.4
2022-11-15T01:29:51.096Z,95.2
2022-11-15T01:31:07.395Z,94.8
2022-11-15T01:32:23.683Z,94.5
2022-11-15T01:33:39.979Z,94.2
2022-11-15T01:34:56.271Z,93.9
2022-11-15T01:36:11.567Z,93.7
2022-11-15T01:37:27.861Z,93.4
2022-11-15T01:38:44.165Z,93.1
2022-11-15T01:40:00.448Z,92.8
2022-11-15T01:41:16.737Z,92.5
2022-11-15T01:42:33.000Z,92.1
2022-11-15T01:43:49.339Z,91.5
2022-11-15T01:45:05.621Z,91
2022-11-15T01:46:21.914Z,90.6
2022-11-15T01:47:38.216Z,90.3
2022-11-15T01:48:54.505Z,90.1
2022-11-15T01:50:10.793Z,89.9
2022-11-15T01:51:27.090Z,89.8
2022-11-15T01:52:42.395Z,89.6
2022-11-15T01:53:58.701Z,89.4
2022-11-15T01:55:14.977Z,89.3
2022-11-15T01:56:31.285Z,89.2
2022-11-15T01:57:47.573Z,89.2
2022-11-15T01:59:03.865Z,89.1
2022-11-15T02:00:20.150Z,89.1
2022-11-15T02:01:36.460Z,89
2022-11-15T02:02:52.741Z,89
2022-11-15T02:04:09.044Z,89
2022-11-15T02:05:25.338Z,89
2022-11-15T02:06:41.620Z,89.1
2022-11-15T02:09:14.202Z,89.1
2022-11-15T02:10:29.516Z,89.1
2022-11-15T02:11:45.790Z,89.1
2022-11-15T02:13:02.088Z,89.3
2022-11-15T02:14:18.381Z,89.3
2022-11-15T02:15:34.674Z,89.3
2022-11-15T02:16:50.980Z,89.5
2022-11-15T02:18:07.259Z,89.5
2022-11-15T02:19:23.554Z,89.5
2022-11-15T02:20:39.856Z,89.3
2022-11-15T02:21:56.134Z,89.3
2022-11-15T02:23:12.438Z,89.3
2022-11-15T02:24:28.733Z,89.5
2022-11-15T02:25:45.027Z,89.8
2022-11-15T02:27:00.337Z,89.9
2022-11-15T02:28:16.630Z,89.9
2022-11-15T02:29:32.925Z,89.8
2022-11-15T02:30:49.216Z,89.6
2022-11-15T02:32:05.496Z,89.3
2022-11-15T02:33:21.789Z,89.1
2022-11-15T02:34:38.098Z,88.8
2022-11-15T02:35:54.385Z,88.6
2022-11-15T02:37:10.683Z,88.5
2022-11-15T02:38:26.977Z,88
2022-11-15T02:39:43.251Z,87.7
2022-11-15T02:40:59.564Z,87.5
2022-11-15T02:42:15.854Z,87.3
2022-11-15T02:43:31.157Z,87.2
2022-11-15T02:44:47.451Z,87
2022-11-15T02:46:03.732Z,86.9
2022-11-15T02:47:20.033Z,86.8
2022-11-15T02:48:36.331Z,86.8
2022-11-15T02:49:52.613Z,86.8
2022-11-15T02:51:08.905Z,86.7
2022-11-15T02:52:25.213Z,86.7
2022-11-15T02:53:41.497Z,86.7
2022-11-15T02:54:57.788Z,86.8
2022-11-15T02:56:14.086Z,86.9
2022-11-15T02:58:46.667Z,86.8
2022-11-15T03:00:01.981Z,86.8
2022-11-15T03:01:18.270Z,86.9
2022-11-15T03:02:34.562Z,87
2022-11-15T03:03:50.862Z,87.1
2022-11-15T03:05:07.143Z,87.3
2022-11-15T03:06:23.438Z,87.3
2022-11-15T03:07:39.742Z,87.5
2022-11-15T03:08:56.033Z,87.6
2022-11-15T03:10:12.321Z,87.8
2022-11-15T03:11:28.624Z,87.7
2022-11-15T03:12:44.911Z,87.7
2022-11-15T03:14:01.208Z,87.8
2022-11-15T03:15:17.504Z,88
2022-11-15T03:16:32.796Z,88.2
2022-11-15T03:17:49.096Z,88.1
2022-11-15T03:19:05.395Z,88.3
2022-11-15T03:20:21.679Z,88.2
2022-11-15T03:21:37.975Z,88.3
2022-11-15T03:22:54.261Z,88.3
2022-11-15T03:24:10.568Z,88.4
2022-11-15T03:25:26.853Z,88.4
2022-11-15T03:26:43.148Z,88.5
2022-11-15T03:27:59.434Z,88.6
2022-11-15T03:29:15.730Z,88.9
2022-11-15T03:30:32.036Z,88.9
2022-11-15T03:31:48.312Z,88.8
2022-11-15T03:33:03.631Z,88.4
2022-11-15T03:34:19.924Z,88.1
2022-11-15T03:36:52.516Z,88
2022-11-15T03:38:08.793Z,88.1
2022-11-15T03:39:25.099Z,88.4
2022-11-15T03:40:41.389Z,88.5
2022-11-15T03:41:57.689Z,88.6
2022-11-15T03:43:13.977Z,89.3
2022-11-15T03:44:30.271Z,89.6
2022-11-15T03:45:46.554Z,90
2022-11-15T03:47:02.848Z,90.1
2022-11-15T03:48:19.152Z,90.2
2022-11-15T03:49:34.454Z,90.4
2022-11-15T03:50:50.742Z,90.9
2022-11-15T03:52:07.045Z,91.1
2022-11-15T03:53:23.334Z,91.3
2022-11-15T03:54:39.632Z,91.5
2022-11-15T03:55:55.926Z,91.6
2022-11-15T03:57:12.221Z,91.8
2022-11-15T03:58:28.515Z,92.2
2022-11-15T03:59:44.791Z,92.3
2022-11-15T04:01:01.093Z,92.3
2022-11-15T04:02:17.379Z,92.5
2022-11-15T04:03:33.685Z,94.3
2022-11-15T04:04:49.968Z,95.4
2022-11-15T04:06:05.290Z,95.2
2022-11-15T04:07:21.580Z,94.8
2022-11-15T04:08:37.866Z,93.6
2022-11-15T04:09:54.174Z,93.1
2022-11-15T04:11:10.466Z,92.5
2022-11-15T04:12:26.747Z,92.1
2022-11-15T04:13:43.048Z,91.9
2022-11-15T04:14:59.327Z,91.8
2022-11-15T04:16:15.626Z,91.8
2022-11-15T04:17:31.932Z,91.9
2022-11-15T04:18:48.228Z,91.9
2022-11-15T04:20:04.505Z,92.1
2022-11-15T04:21:20.808Z,92
2022-11-15T04:22:36.102Z,92.1
2022-11-15T04:23:52.405Z,92.3
2022-11-15T04:25:08.703Z,92.3
2022-11-15T04:26:24.988Z,92.6
2022-11-15T04:27:41.295Z,93
2022-11-15T04:28:57.574Z,93.1
2022-11-15T04:30:13.880Z,93.3
2022-11-15T04:31:30.170Z,93.5
2022-11-15T04:32:46.461Z,93.7
2022-11-15T04:34:02.758Z,93.8
2022-11-15T04:35:19.044Z,94.1
2022-11-15T04:36:35.349Z,94.4
2022-11-15T04:37:51.627Z,95.5
2022-11-15T04:39:06.946Z,95.4
2022-11-15T04:40:23.235Z,95.2
2022-11-15T04:41:39.523Z,95.1
2022-11-15T04:42:55.831Z,95
2022-11-15T04:44:12.115Z,95.1
2022-11-15T04:45:28.533Z,95.2
2022-11-15T04:46:44.821Z,95.2
2022-11-15T04:48:01.118Z,95.3
2022-11-15T04:49:17.420Z,95.3
2022-11-15T04:50:33.709Z,95.3
2022-11-15T04:51:49.997Z,95.5
2022-11-15T04:53:06.298Z,95.7
2022-11-15T04:54:22.583Z,96
2022-11-15T04:55:38.888Z,96.3
2022-11-15T04:56:55.168Z,96.5
2022-11-15T04:58:11.475Z,96.8
2022-11-15T04:59:27.763Z,96.6
2022-11-15T05:00:44.060Z,96.4
2022-11-15T05:01:59.355Z,96.5
2022-11-15T05:03:15.668Z,98.1
2022-11-15T05:04:31.960Z,98.3
2022-11-15T05:05:48.239Z,97.8
2022-11-15T05:07:04.542Z,97.5
2022-11-15T05:08:20.840Z,97.3
2022-11-15T05:09:37.128Z,97.9
2022-11-15T05:10:53.421Z,97.8
2022-11-15T05:12:09.702Z,97.3
2022-11-15T05:13:26.002Z,96.9
2022-11-15T05:14:42.298Z,96.5
2022-11-15T05:15:58.591Z,96.1
2022-11-15T05:17:14.893Z,95.4
2022-11-15T05:18:30.201Z,94.9
2022-11-15T05:19:46.485Z,94.5
2022-11-15T05:21:02.780Z,94.1
2022-11-15T05:22:19.079Z,93.9
2022-11-15T05:23:35.370Z,93.5
2022-11-15T05:24:51.668Z,93.2
2022-11-15T05:26:07.948Z,91.9
2022-11-15T05:27:24.239Z,92.1
2022-11-15T05:28:40.545Z,91.9
2022-11-15T05:29:56.826Z,91.2
2022-11-15T05:31:13.130Z,91
2022-11-15T05:32:29.411Z,90.8
2022-11-15T05:33:45.705Z,90.8
2022-11-15T05:35:01.019Z,90.9
2022-11-15T05:36:17.313Z,91
2022-11-15T05:37:33.605Z,91.2
2022-11-15T05:38:49.895Z,91.4
2022-11-15T05:40:06.191Z,91.5
2022-11-15T05:41:22.489Z,91.8
2022-11-15T05:42:38.793Z,92.3
2022-11-15T05:43:55.070Z,92.5
2022-11-15T05:45:11.361Z,92.7
2022-11-15T05:46:27.656Z,92.9
2022-11-15T05:47:43.912Z,93
2022-11-15T05:49:00.187Z,93
2022-11-15T05:50:16.451Z,93.4
2022-11-15T05:51:31.693Z,93.5
2022-11-15T05:52:47.943Z,93.4
2022-11-15T05:54:04.238Z,93.5
2022-11-15T05:55:20.479Z,93.3
2022-11-15T05:56:36.719Z,93.5
2022-11-15T05:57:53.013Z,93.7
2022-11-15T05:59:09.265Z,94.1
2022-11-15T06:00:25.510Z,94.4
2022-11-15T06:01:41.735Z,94.8
2022-11-15T06:02:57.987Z,95.4
2022-11-15T06:04:14.232Z,95.7
2022-11-15T06:05:30.466Z,96.4
2022-11-15T06:06:46.702Z,97.2
2022-11-15T06:08:01.947Z,97.6
2022-11-15T06:09:18.204Z,97.4
2022-11-15T06:10:34.433Z,97.1
2022-11-15T06:11:50.665Z,96.5
2022-11-15T06:13:06.921Z,96.2
2022-11-15T06:14:23.146Z,95.9
2022-11-15T06:15:39.390Z,95.7
2022-11-15T06:16:55.640Z,95.6
2022-11-15T06:18:11.880Z,95.6
2022-11-15T06:19:28.099Z,95.8
2022-11-15T06:20:44.353Z,96
2022-11-15T06:22:00.582Z,96.2
2022-11-15T06:23:16.827Z,96.4
2022-11-15T06:24:32.091Z,96.4
2022-11-15T06:25:48.319Z,96.5
2022-11-15T06:27:04.570Z,96.5
2022-11-15T06:28:20.792Z,96.6
2022-11-15T06:29:37.031Z,96.6
2022-11-15T06:30:53.278Z,96.5
2022-11-15T06:32:09.517Z,96.5
2022-11-15T06:33:25.763Z,96.6
2022-11-15T06:34:41.998Z,96.7
2022-11-15T06:35:58.230Z,96.6
2022-11-15T06:37:14.481Z,96.7
2022-11-15T06:38:30.712Z,96.7
2022-11-15T06:39:46.944Z,96.6
2022-11-15T06:41:02.201Z,96.6
2022-11-15T06:42:18.446Z,96.6
2022-11-15T06:43:34.693Z,96.6
2022-11-15T06:44:50.915Z,96.5
2022-11-15T06:46:07.153Z,96.8
2022-11-15T06:47:23.395Z,97.1
2022-11-15T06:48:39.636Z,97.3
2022-11-15T06:49:55.869Z,97.5
2022-11-15T06:51:12.127Z,97.4
2022-11-15T06:52:28.352Z,97.3
2022-11-15T06:53:44.605Z,97.2
2022-11-15T06:55:00.828Z,97.2
2022-11-15T06:56:17.076Z,97
2022-11-15T06:57:32.332Z,97
2022-11-15T06:58:48.575Z,97
2022-11-15T07:00:04.800Z,97.1
2022-11-15T07:01:21.045Z,97.4
2022-11-15T07:02:37.290Z,97.6
2022-11-15T07:03:53.528Z,97.6
2022-11-15T07:05:09.766Z,97.7
2022-11-15T07:06:26.005Z,97.7
2022-11-15T07:07:42.242Z,97.8
2022-11-15T07:08:58.474Z,97.9
2022-11-15T07:10:14.716Z,98
2022-11-15T07:11:30.953Z,98
2022-11-15T07:12:47.196Z,97.9
2022-11-15T07:14:02.446Z,97.9
2022-11-15T07:15:18.702Z,97.9
2022-11-15T07:16:34.936Z,97.8
2022-11-15T07:17:51.169Z,97.7
2022-11-15T07:19:07.417Z,97.6
2022-11-15T07:20:23.659Z,97.6
2022-11-15T07:21:39.897Z,97.6
2022-11-15T07:22:56.120Z,97.7
2022-11-15T07:24:12.374Z,97.5
2022-11-15T07:25:28.602Z,97.5
2022-11-15T07:26:44.859Z,97.5
2022-11-15T07:28:01.094Z,97.7
2022-11-15T07:29:17.336Z,97.7
2022-11-15T07:30:33.675Z,97.9
2022-11-15T07:31:49.918Z,98.1
2022-11-15T07:33:06.169Z,97.9
2022-11-15T07:34:22.411Z,97.7
2022-11-15T07:35:38.635Z,97.4
2022-11-15T07:36:54.886Z,97.2
2022-11-15T07:38:11.121Z,96.9
2022-11-15T07:39:27.357Z,96.9
2022-11-15T07:40:43.605Z,96.7
2022-11-15T07:41:59.833Z,96.6
2022-11-15T07:43:16.085Z,96.5
2022-11-15T07:44:32.316Z,96.3
2022-11-15T07:45:48.547Z,96.2
2022-11-15T07:47:03.804Z,96.1
2022-11-15T07:48:20.056Z,96
2022-11-15T07:49:36.296Z,95.9
2022-11-15T07:50:52.530Z,95.9
2022-11-15T07:52:08.754Z,95.7
2022-11-15T07:53:24.996Z,95.6
2022-11-15T07:54:41.238Z,95.5
2022-11-15T07:55:57.490Z,95.3
2022-11-15T07:57:13.715Z,95.1
2022-11-15T07:58:29.961Z,95
2022-11-15T07:59:46.203Z,94.9
2022-11-15T08:01:02.433Z,94.8
2022-11-15T08:02:18.687Z,94.5
2022-11-15T08:03:33.937Z,94.3
2022-11-15T08:04:50.169Z,94
2022-11-15T08:06:06.416Z,94
2022-11-15T08:07:22.641Z,93.8
2022-11-15T08:08:38.882Z,93.3
2022-11-15T08:09:55.130Z,93
2022-11-15T08:11:11.360Z,92.8
2022-11-15T08:12:27.600Z,92.7
2022-11-15T08:13:43.840Z,92.2
2022-11-15T08:15:00.095Z,91.3
2022-11-15T08:16:16.327Z,91.1
2022-11-15T08:17:32.557Z,89.8
2022-11-15T08:18:48.795Z,89.1
2022-11-15T08:20:04.052Z,88.9
2022-11-15T08:21:20.305Z,86.4
2022-11-15T08:22:36.547Z,84.3
2022-11-15T08:23:52.786Z,83.5
2022-11-15T08:25:09.015Z,80.6
2022-11-15T08:26:25.270Z,77
2022-11-15T08:27:41.495Z,75.3
2022-11-15T08:28:57.750Z,72.4
2022-11-15T08:30:13.971Z,71.2
2022-11-15T08:31:30.211Z,69.4
2022-11-15T08:32:46.448Z,69
2022-11-15T08:34:02.691Z,66.5
2022-11-15T08:35:18.945Z,65.1
2022-11-15T08:36:35.297Z,65.1
2022-11-15T08:37:51.533Z,64
2022-11-15T08:39:07.769Z,62.4
2022-11-15T08:40:24.020Z,61.6
2022-11-15T08:41:40.251Z,60.4
2022-11-15T08:42:56.494Z,60.3
2022-11-15T08:44:12.724Z,59.2
2022-11-15T08:45:28.958Z,57.7
2022-11-15T08:46:45.203Z,56
2022-11-15T08:48:01.438Z,55.8
2022-11-15T08:49:17.688Z,54.9
2022-11-15T08:50:33.927Z,55
2022-11-15T08:51:50.164Z,54.1
2022-11-15T08:53:05.412Z,54.8
2022-11-15T08:54:21.648Z,55.2
2022-11-15T08:55:37.877Z,54.8
2022-11-15T08:56:54.132Z,55.4
2022-11-15T08:58:10.364Z,55.7
2022-11-15T08:59:26.606Z,56.5
2022-11-15T09:00:41.872Z,56.5
2022-11-15T09:01:58.091Z,54.9
2022-11-15T09:03:14.339Z,54.8
2022-11-15T09:04:30.583Z,54.5
2022-11-15T09:05:46.816Z,54.4
2022-11-15T09:07:03.043Z,53.3
2022-11-15T09:08:19.281Z,53.8
2022-11-15T09:09:35.540Z,52.9
2022-11-15T09:12:08.007Z,51.3
2022-11-15T09:13:24.254Z,51.5
2022-11-15T09:14:40.489Z,50.9
2022-11-15T09:15:56.723Z,50.3
2022-11-15T09:17:11.972Z,51.3
2022-11-15T09:18:28.207Z,52.6
2022-11-15T09:19:44.463Z,51.9
2022-11-15T09:21:00.697Z,52.3
2022-11-15T09:22:16.937Z,53.5
2022-11-15T09:23:33.169Z,52.8
2022-11-15T09:24:49.406Z,51.5
2022-11-15T09:26:05.636Z,50.7
2022-11-15T09:27:21.876Z,50.4
2022-11-15T09:28:38.116Z,50.3
2022-11-15T09:29:54.358Z,49.2
2022-11-15T09:31:10.592Z,50.1
2022-11-15T09:32:26.846Z,49.7
2022-11-15T09:33:42.093Z,49.3
2022-11-15T09:34:58.330Z,50.4
2022-11-15T09:36:14.570Z,50
2022-11-15T09:37:30.800Z,51.4
2022-11-15T09:40:03.292Z,52.3
2022-11-15T09:41:19.515Z,53.3
2022-11-15T09:42:35.769Z,54.3
2022-11-15T09:43:52.000Z,55.9
2022-11-15T09:45:08.249Z,56
2022-11-15T09:46:24.473Z,57.1
2022-11-15T09:47:40.708Z,58.9
2022-11-15T09:48:56.952Z,58.7
2022-11-15T09:50:12.209Z,58.6
2022-11-15T09:51:28.450Z,58.8
2022-11-15T09:52:44.681Z,59.3
2022-11-15T09:54:00.936Z,60.5
2022-11-15T09:55:17.164Z,61
2022-11-15T09:56:33.401Z,61.5
2022-11-15T09:57:49.636Z,61.8
2022-11-15T09:59:05.889Z,61.4
2022-11-15T10:00:22.114Z,60.7
2022-11-15T10:01:38.361Z,60.9
2022-11-15T10:02:54.586Z,60.6
2022-11-15T10:04:10.840Z,60.4
2022-11-15T10:05:27.064Z,60.1
2022-11-15T10:06:42.324Z,59.6
2022-11-15T10:07:58.558Z,59.9
2022-11-15T10:09:14.813Z,59.4
2022-11-15T10:10:31.039Z,57.9
2022-11-15T10:11:47.269Z,57.6
2022-11-15T10:13:03.528Z,56.5
2022-11-15T10:14:19.751Z,57
2022-11-15T10:15:36.003Z,56.8
2022-11-15T10:16:52.231Z,57.3
2022-11-15T10:18:08.470Z,57.2
2022-11-15T10:19:24.718Z,57.2
2022-11-15T10:20:40.959Z,57
2022-11-15T10:21:57.178Z,57.4
2022-11-15T10:23:12.441Z,57.1
2022-11-15T10:24:28.671Z,57
2022-11-15T10:25:44.922Z,57
2022-11-15T10:27:01.167Z,56.5
2022-11-15T10:28:17.397Z,55.7
2022-11-15T10:29:33.630Z,53.8
2022-11-15T10:30:49.876Z,53.5
2022-11-15T10:32:06.122Z,53.7
2022-11-15T10:33:22.341Z,52.9
2022-11-15T10:34:38.601Z,52.8
2022-11-15T10:35:54.822Z,53.2
2022-11-15T10:37:11.074Z,54.9
2022-11-15T10:38:27.315Z,56.1
2022-11-15T10:39:42.566Z,55.2
2022-11-15T10:40:58.818Z,54.8
2022-11-15T10:42:15.040Z,55.4
2022-11-15T10:43:31.286Z,55.1
2022-11-15T10:44:47.544Z,53.6
2022-11-15T10:46:03.783Z,52
2022-11-15T10:47:20.008Z,51.1
2022-11-15T10:48:36.259Z,49.1
2022-11-15T10:49:52.493Z,49
2022-11-15T10:51:08.733Z,47.9
2022-11-15T10:52:24.957Z,47.1
2022-11-15T10:53:41.213Z,47
2022-11-15T10:54:57.447Z,47.4
2022-11-15T10:56:12.702Z,47.6
2022-11-15T10:57:28.927Z,48.2
2022-11-15T10:58:45.180Z,49.6
2022-11-15T11:00:01.415Z,50.9
2022-11-15T11:01:17.656Z,53.1
2022-11-15T11:02:33.891Z,53.2
2022-11-15T11:03:50.124Z,53.9
2022-11-15T11:05:06.362Z,53.9
2022-11-15T11:06:22.594Z,54.5
2022-11-15T11:07:38.842Z,54.9
2022-11-15T11:08:55.072Z,55.3
2022-11-15T11:11:27.568Z,54.1
2022-11-15T11:12:42.820Z,54.3
2022-11-15T11:13:59.048Z,53.6
2022-11-15T11:15:15.292Z,53
2022-11-15T11:16:31.530Z,53.2
2022-11-15T11:17:47.761Z,53.3
2022-11-15T11:19:04.008Z,52.5
2022-11-15T11:20:20.233Z,50.6
2022-11-15T11:21:36.484Z,49.6
2022-11-15T11:22:52.712Z,49.1
2022-11-15T11:24:08.954Z,48.7
2022-11-15T11:25:25.193Z,47.4
2022-11-15T11:26:41.428Z,45.3
2022-11-15T11:27:57.676Z,44.4
2022-11-15T11:29:12.917Z,44.2
2022-11-15T11:30:29.155Z,43.8
2022-11-15T11:31:45.405Z,44.1
2022-11-15T11:33:01.647Z,43.2
2022-11-15T11:34:17.888Z,42.4
2022-11-15T11:35:34.111Z,42.4
2022-11-15T11:36:50.357Z,42.6
2022-11-15T11:38:06.587Z,41.8
2022-11-15T11:39:22.844Z,41.2
2022-11-15T11:40:39.083Z,41.3
2022-11-15T11:41:55.318Z,40.6
2022-11-15T11:43:11.541Z,40.4
2022-11-15T11:44:27.798Z,40.7
2022-11-15T11:45:43.050Z,40.8
2022-11-15T11:46:59.290Z,41.8
2022-11-15T11:48:15.531Z,42.4
2022-11-15T11:49:31.764Z,42.4
2022-11-15T11:50:48.002Z,43.1
2022-11-15T11:52:04.244Z,41.8
2022-11-15T11:53:20.486Z,42
2022-11-15T11:54:36.707Z,42.1
2022-11-15T11:55:52.961Z,42.4
2022-11-15T11:57:09.189Z,42.3
2022-11-15T11:58:25.428Z,42.9
2022-11-15T11:59:41.662Z,42.9
2022-11-15T12:00:57.910Z,43
2022-11-15T12:02:13.158Z,42.2
2022-11-15T12:03:29.403Z,42.1
2022-11-15T12:04:45.639Z,41.7
2022-11-15T12:06:01.878Z,41.6
2022-11-15T12:07:18.129Z,42.1
2022-11-15T12:08:34.354Z,42.7
2022-11-15T12:09:50.596Z,42.9
2022-11-15T12:11:06.833Z,43.6
2022-11-15T12:12:23.071Z,43.4
2022-11-15T12:13:39.307Z,43
2022-11-15T12:14:55.544Z,43.4
2022-11-15T12:16:11.794Z,42.4
2022-11-15T12:17:28.036Z,42.4
2022-11-15T12:18:43.286Z,42
2022-11-15T12:19:59.514Z,41.9
2022-11-15T12:21:15.754Z,41.6
2022-11-15T12:22:32.001Z,42
2022-11-15T12:23:48.236Z,42.4
2022-11-15T12:25:04.466Z,42.6
2022-11-15T12:26:20.713Z,43.6
2022-11-15T12:27:36.955Z,43
2022-11-15T12:28:53.202Z,43.6
2022-11-15T12:30:09.424Z,43
2022-11-15T12:31:25.679Z,43.5
2022-11-15T12:33:58.140Z,43
2022-11-15T12:35:13.400Z,43.9
2022-11-15T12:36:29.629Z,43.6
2022-11-15T12:37:45.880Z,43.5
2022-11-15T12:39:02.124Z,44.7
2022-11-15T12:40:18.362Z,44.8
2022-11-15T12:41:34.602Z,43.7
2022-11-15T12:42:50.832Z,43.5
2022-11-15T12:44:07.076Z,43.9
2022-11-15T12:45:23.318Z,43.6
2022-11-15T12:46:39.552Z,43.3
2022-11-15T12:47:55.776Z,43.5
2022-11-15T12:49:12.033Z,43.7
2022-11-15T12:50:28.255Z,44.9
2022-11-15T12:51:43.510Z,44.8
2022-11-15T12:52:59.757Z,44.2
2022-11-15T12:54:15.995Z,44.2
2022-11-15T12:55:32.239Z,44.1
2022-11-15T12:56:48.478Z,45
2022-11-15T12:58:04.716Z,45.1
2022-11-15T12:59:20.955Z,45.1
2022-11-15T13:00:37.197Z,45.8
2022-11-15T13:01:53.426Z,46.5
2022-11-15T13:03:09.666Z,47.2
2022-11-15T13:04:25.890Z,47.7
2022-11-15T13:05:42.143Z,48.4
2022-11-15T13:06:58.388Z,48.2
2022-11-15T13:08:13.637Z,48.3
2022-11-15T13:09:29.880Z,49
2022-11-15T13:10:46.110Z,49.2
2022-11-15T13:12:02.341Z,49.2
2022-11-15T13:13:18.590Z,49.3
2022-11-15T13:14:34.832Z,49.1
2022-11-15T13:15:51.192Z,48.8
2022-11-15T13:17:07.423Z,48.8
2022-11-15T13:18:23.659Z,48.8
2022-11-15T13:19:39.902Z,48.8
2022-11-15T13:20:56.139Z,48.7
2022-11-15T13:22:12.373Z,48.7
2022-11-15T13:23:28.609Z,49.1
2022-11-15T13:24:44.856Z,48.8
2022-11-15T13:26:01.098Z,48.9
2022-11-15T13:27:17.330Z,48.8
2022-11-15T13:28:33.575Z,48.8
2022-11-15T13:29:49.819Z,49
2022-11-15T13:31:06.038Z,49.2
2022-11-15T13:32:21.310Z,49.5
2022-11-15T13:33:37.540Z,49.4
2022-11-15T13:34:53.778Z,49.6
2022-11-15T13:36:10.015Z,49.5
2022-11-15T13:37:26.251Z,49.1
2022-11-15T13:38:42.497Z,49.7
2022-11-15T13:39:58.732Z,49.4
2022-11-15T13:41:14.979Z,49.9
2022-11-15T13:42:31.205Z,49.8
2022-11-15T13:43:47.457Z,50.5
2022-11-15T13:45:03.690Z,50.9
2022-11-15T13:46:19.922Z,51.2
2022-11-15T13:47:36.172Z,50.7
2022-11-15T13:48:51.409Z,52.7
2022-11-15T13:50:07.657Z,50.8
2022-11-15T13:51:23.886Z,50
2022-11-15T13:52:40.139Z,51.3
2022-11-15T13:53:56.380Z,50.4
2022-11-15T13:55:12.620Z,49.7
2022-11-15T13:56:28.860Z,50.2
2022-11-15T13:57:45.097Z,51.2
2022-11-15T13:59:01.329Z,51.7
2022-11-15T14:00:17.557Z,51.8
2022-11-15T14:01:33.801Z,51.9
2022-11-15T14:02:50.049Z,53.1
2022-11-15T14:04:06.274Z,52.4
2022-11-15T14:05:21.545Z,53.7
2022-11-15T14:06:37.785Z,53.5
2022-11-15T14:07:54.017Z,53.5
2022-11-15T14:09:10.242Z,52.9
2022-11-15T14:10:26.480Z,53.1
2022-11-15T14:11:42.724Z,52.9
2022-11-15T14:12:58.970Z,53.5
2022-11-15T14:14:15.212Z,53.3
2022-11-15T14:15:31.439Z,53.8
2022-11-15T14:16:47.679Z,54.6
2022-11-15T14:18:03.927Z,55.8
2022-11-15T14:19:20.154Z,56.8
2022-11-15T14:20:36.409Z,56.4
2022-11-15T14:21:51.657Z,57.3
2022-11-15T14:23:07.882Z,58.2
2022-11-15T14:24:24.125Z,59.1
2022-11-15T14:25:40.380Z,59.8
2022-11-15T14:26:56.611Z,60.3
2022-11-15T14:28:12.844Z,60.3
2022-11-15T14:29:29.080Z,60.5
2022-11-15T14:30:45.315Z,61.2
2022-11-15T14:32:01.572Z,60.9
2022-11-15T14:33:17.796Z,61.5
2022-11-15T14:34:34.029Z,61.9
2022-11-15T14:35:50.280Z,62.9
2022-11-15T14:37:06.506Z,63.1
2022-11-15T14:38:21.769Z,63.6
2022-11-15T14:39:38.001Z,64.1
2022-11-15T14:40:54.241Z,64.5
2022-11-15T14:42:10.478Z,64.9
2022-11-15T14:43:26.716Z,65.8
2022-11-15T14:44:42.971Z,66.2
2022-11-15T14:45:59.193Z,66.1
2022-11-15T14:47:15.445Z,66.6
2022-11-15T14:48:31.680Z,67.4
2022-11-15T14:49:47.926Z,67.6
2022-11-15T14:51:04.149Z,68
2022-11-15T14:52:20.393Z,68.5
2022-11-15T14:53:36.625Z,69.1
2022-11-15T14:54:51.883Z,69.1
2022-11-15T14:56:08.134Z,69.6
2022-11-15T14:57:24.371Z,70.3
2022-11-15T14:58:40.599Z,71
2022-11-15T14:59:56.839Z,71.2
2022-11-15T15:01:13.072Z,71.6
2022-11-15T15:02:29.309Z,72.1
2022-11-15T15:03:45.566Z,72.1
2022-11-15T15:05:01.793Z,72.7
2022-11-15T15:06:18.039Z,73.2
2022-11-15T15:07:34.277Z,73.5
2022-11-15T15:08:50.504Z,73.8
2022-11-15T15:10:06.740Z,74.2
2022-11-15T15:12:38.237Z,74.1
2022-11-15T15:13:54.476Z,74.7
2022-11-15T15:15:10.713Z,75.5
2022-11-15T15:16:26.950Z,75.9
2022-11-15T15:17:43.203Z,76.3
2022-11-15T15:18:59.429Z,76.3
2022-11-15T15:20:15.666Z,76.3
2022-11-15T15:21:31.906Z,76.4
2022-11-15T15:22:48.144Z,76.4
2022-11-15T15:24:04.386Z,76.5
2022-11-15T15:25:20.626Z,77
2022-11-15T15:26:36.869Z,77.8
2022-11-15T15:27:52.111Z,78.2
2022-11-15T15:29:08.350Z,78.8
2022-11-15T15:30:24.602Z,79.3
2022-11-15T15:31:40.845Z,79.3
2022-11-15T15:32:57.064Z,79.5
2022-11-15T15:34:13.301Z,79.7
2022-11-15T15:35:29.546Z,80.4
2022-11-15T15:36:45.784Z,81
2022-11-15T15:38:02.025Z,81.5
2022-11-15T15:39:18.274Z,81.8
2022-11-15T15:40:34.509Z,81.9
2022-11-15T15:41:50.743Z,82.2
2022-11-15T15:43:06.979Z,82
2022-11-15T15:44:22.241Z,82.4
2022-11-15T15:45:38.469Z,82.9
2022-11-15T15:46:54.706Z,83.4
2022-11-15T15:48:10.945Z,83.4
2022-11-15T15:49:27.190Z,83
2022-11-15T15:50:43.425Z,83.4
2022-11-15T15:51:59.655Z,83.7
2022-11-15T15:53:15.893Z,83.9
2022-11-15T15:54:32.136Z,84
2022-11-15T15:55:48.386Z,84
2022-11-15T15:57:04.613Z,84.1
2022-11-15T15:58:20.851Z,84.3
2022-11-15T15:59:37.090Z,84.3
2022-11-15T16:00:52.400Z,84.4
2022-11-15T16:02:08.701Z,84.7
2022-11-15T16:03:24.998Z,84.6
2022-11-15T16:04:41.288Z,84.3
2022-11-15T16:05:57.582Z,84.9
2022-11-15T16:07:13.861Z,84.7
2022-11-15T16:08:30.172Z,84.3
2022-11-15T16:09:46.462Z,84.8
2022-11-15T16:11:02.748Z,85.3
2022-11-15T16:12:19.037Z,85.6
2022-11-15T16:13:35.330Z,86.3
2022-11-15T16:14:51.627Z,86.4
2022-11-15T16:16:07.909Z,86.4
2022-11-15T16:17:23.235Z,86.8
2022-11-15T16:18:39.526Z,87.1
2022-11-15T16:19:55.806Z,87.5
2022-11-15T16:21:12.112Z,87.8
2022-11-15T16:22:28.407Z,87.9
2022-11-15T16:23:44.699Z,88.1
2022-11-15T16:25:00.977Z,88.1
2022-11-15T16:26:17.285Z,89
2022-11-15T16:27:33.574Z,89.1
2022-11-15T16:28:49.870Z,89.5
2022-11-15T16:30:06.153Z,89.9
2022-11-15T16:31:22.455Z,89.7
2022-11-15T16:32:38.741Z,89.7
2022-11-15T16:33:54.054Z,89.7
2022-11-15T16:35:10.352Z,89.7
2022-11-15T16:36:26.645Z,90.2
2022-11-15T16:37:42.924Z,90.6
2022-11-15T16:38:59.227Z,90.7
2022-11-15T16:40:15.515Z,90.5
2022-11-15T16:41:31.819Z,90.3
2022-11-15T16:42:48.104Z,90.2
2022-11-15T16:44:04.385Z,90.3
2022-11-15T16:45:20.693Z,90.3
2022-11-15T16:46:36.987Z,90.3
2022-11-15T16:47:53.275Z,90.3
2022-11-15T16:49:09.574Z,90.5
2022-11-15T16:50:24.879Z,90.7
2022-11-15T16:51:41.171Z,90.8
2022-11-15T16:52:57.465Z,90.8
2022-11-15T16:54:13.764Z,91.3
2022-11-15T16:55:30.055Z,91.5
2022-11-15T16:56:46.349Z,91.5
2022-11-15T16:58:02.627Z,91.5
2022-11-15T16:59:18.921Z,91.7
2022-11-15T17:00:35.217Z,92.1
2022-11-15T17:01:51.522Z,92
2022-11-15T17:03:07.796Z,91.9
2022-11-15T17:04:24.101Z,91.5
2022-11-15T17:05:40.382Z,91.6
2022-11-15T17:06:55.697Z,91.7
2022-11-15T17:08:11.985Z,91.9
2022-11-15T17:09:28.280Z,91.8
2022-11-15T17:10:44.586Z,91.6